Time;durP1;ratioP1;P1;durP2;ratioP2;P2;SDS_P1;SDS_P2;PMS_P1;PMS_P2;Temp;Humidity;BMP_temperature;BMP_pressure;BME280_temperature;BME280_humidity;BME280_pressure;Samples;Min_cycle;Max_cycle;Signal;HPM_P1;HPM_P2
2022/04/14 00:02:01;;;;;;;27.98;21.15;;;;;;;16.12;59.17;101912.16;6339158;22;20106;-66
2022/04/14 00:04:28;;;;;;;78.13;24.65;;;;;;;16.10;59.16;101908.69;6339419;22;20036;-66
2022/04/14 00:06:57;;;;;;;31.38;23.45;;;;;;;16.05;59.00;101905.50;6337946;22;20041;-67
2022/04/14 00:09:24;;;;;;;76.00;25.17;;;;;;;16.03;59.11;101904.75;6339474;22;20015;-67
2022/04/14 00:11:50;;;;;;;285.08;39.92;;;;;;;15.99;59.23;101895.13;6339026;22;20441;-67
2022/04/14 00:14:17;;;;;;;67.75;28.05;;;;;;;15.96;59.21;101899.91;6311950;22;20046;-66
2022/04/14 00:16:44;;;;;;;96.28;28.52;;;;;;;15.94;59.41;101900.03;6339592;22;20117;-67
2022/04/14 00:19:11;;;;;;;68.80;26.30;;;;;;;15.94;59.53;101899.16;6312011;22;20101;-67
2022/04/14 00:21:38;;;;;;;71.15;26.80;;;;;;;15.93;59.72;101892.88;6338808;22;20040;-66
2022/04/14 00:24:05;;;;;;;52.80;22.90;;;;;;;15.92;59.68;101887.59;6311710;22;20011;-67
2022/04/14 00:26:31;;;;;;;83.75;23.75;;;;;;;15.91;59.83;101886.72;6339726;22;20049;-66
2022/04/14 00:28:58;;;;;;;123.50;24.83;;;;;;;15.88;59.90;101882.41;6338602;22;20022;-67
2022/04/14 00:31:25;;;;;;;133.38;25.55;;;;;;;15.83;59.55;101884.59;6311437;22;20510;-66
2022/04/14 00:33:51;;;;;;;30.27;19.50;;;;;;;15.78;59.66;101877.81;6339438;22;20094;-66
2022/04/14 00:36:19;;;;;;;26.40;20.63;;;;;;;15.75;59.97;101880.75;6339703;22;20039;-67
2022/04/14 00:38:46;;;;;;;28.00;20.60;;;;;;;15.76;60.30;101888.75;6310985;22;20035;-67
2022/04/14 00:41:12;;;;;;;25.80;19.52;;;;;;;15.78;60.14;101881.38;6338909;22;20014;-67
2022/04/14 00:43:39;;;;;;;22.58;18.38;;;;;;;15.81;59.83;101875.72;6339007;22;20006;-67
2022/04/14 00:46:06;;;;;;;22.50;18.70;;;;;;;15.82;59.81;101874.75;6339100;22;20072;-67
2022/04/14 00:48:33;;;;;;;23.05;18.75;;;;;;;15.85;59.89;101881.78;6313241;22;20379;-67
2022/04/14 00:51:00;;;;;;;59.22;18.55;;;;;;;15.85;59.84;101879.06;6339218;22;20463;-67
2022/04/14 00:53:27;;;;;;;18.13;16.00;;;;;;;15.82;60.01;101882.88;6260501;22;20019;-67
2022/04/14 00:55:53;;;;;;;20.20;17.95;;;;;;;15.81;59.95;101880.28;6339217;22;20333;-67
2022/04/14 00:58:20;;;;;;;28.67;19.70;;;;;;;15.79;59.67;101880.41;6339003;22;20011;-66
2022/04/14 01:00:47;;;;;;;26.80;19.92;;;;;;;15.79;59.78;101880.41;6311118;22;20121;-67
2022/04/14 01:03:15;;;;;;;47.97;22.65;;;;;;;15.78;59.84;101883.22;6340756;22;20018;-67
2022/04/14 01:05:45;;;;;;;62.65;23.08;;;;;;;15.76;59.98;101882.47;6341023;22;20076;-66
2022/04/14 01:08:16;;;;;;;97.75;24.52;;;;;;;15.72;59.61;101879.16;6340452;22;20341;-67
2022/04/14 01:10:50;;;;;;;96.45;24.67;;;;;;;15.69;59.69;101879.38;6340774;22;20445;-67
2022/04/14 01:13:18;;;;;;;123.88;22.00;;;;;;;15.66;59.77;101886.88;6341003;22;20068;-66
2022/04/14 01:15:46;;;;;;;52.00;20.63;;;;;;;15.61;59.94;101873.69;6340946;22;20437;-66
2022/04/14 01:18:13;;;;;;;65.53;19.80;;;;;;;15.60;59.79;101879.19;6340381;22;20041;-67
2022/04/14 01:20:44;;;;;;;23.27;18.17;;;;;;;15.56;60.08;101876.66;6340504;22;20019;-66
2022/04/14 01:23:12;;;;;;;63.72;19.90;;;;;;;15.56;60.13;101878.53;6340805;22;20015;-67
2022/04/14 01:25:39;;;;;;;33.53;19.23;;;;;;;15.55;60.14;101880.38;6313971;22;20089;-66
2022/04/14 01:28:06;;;;;;;50.53;17.92;;;;;;;15.55;60.07;101879.50;6339837;22;20379;-67
2022/04/14 01:30:34;;;;;;;140.82;20.70;;;;;;;15.54;60.13;101875.06;6340884;22;20018;-67
2022/04/14 01:33:02;;;;;;;38.45;17.05;;;;;;;15.50;59.75;101881.69;6313391;22;20021;-67
2022/04/14 01:35:29;;;;;;;59.38;18.20;;;;;;;15.45;59.57;101879.34;6313631;22;20341;-68
2022/04/14 01:37:56;;;;;;;65.97;19.40;;;;;;;15.41;60.20;101880.53;6340121;22;20007;-66
2022/04/14 01:40:22;;;;;;;46.97;18.55;;;;;;;15.38;59.99;101890.72;6340477;22;20038;-67
2022/04/14 01:42:49;;;;;;;74.70;20.23;;;;;;;15.35;59.82;101885.53;6340433;22;20019;-66
2022/04/14 01:45:16;;;;;;;69.47;20.25;;;;;;;15.31;60.00;101882.19;6340480;22;20014;-67
2022/04/14 01:47:44;;;;;;;36.05;19.27;;;;;;;15.30;59.83;101877.78;6340528;22;20042;-67
2022/04/14 01:50:13;;;;;;;145.77;24.70;;;;;;;15.25;60.01;101880.81;6340171;22;20046;-67
2022/04/14 01:52:42;;;;;;;59.97;22.45;;;;;;;15.21;60.18;101884.72;6340864;22;20042;-66
2022/04/14 01:55:09;;;;;;;30.17;20.15;;;;;;;15.20;59.96;101885.72;6340931;22;20018;-66
2022/04/14 01:57:37;;;;;;;61.67;21.85;;;;;;;15.22;60.18;101891.00;6341464;22;20014;-67
2022/04/14 02:00:07;;;;;;;72.55;22.17;;;;;;;15.21;60.04;101889.28;6340337;22;20022;-68
2022/04/14 02:02:34;;;;;;;88.93;21.10;;;;;;;15.20;59.95;101892.97;6312942;22;20015;-67
2022/04/14 02:05:01;;;;;;;92.68;22.80;;;;;;;15.16;59.84;101883.34;6340505;22;20011;-67
2022/04/14 02:07:28;;;;;;;39.20;20.55;;;;;;;15.14;60.07;101886.16;6312572;22;20011;-66
2022/04/14 02:09:56;;;;;;;102.45;24.67;;;;;;;15.11;60.22;101886.38;6339785;22;20015;-67
2022/04/14 02:12:24;;;;;;;36.00;21.27;;;;;;;15.11;60.01;101897.22;6312957;22;20026;-68
2022/04/14 02:14:52;;;;;;;62.03;24.77;;;;;;;15.12;60.14;101898.94;6313546;22;20046;-66
2022/04/14 02:17:19;;;;;;;106.28;26.52;;;;;;;15.13;60.37;101899.81;6312863;22;20333;-67
2022/04/14 02:19:47;;;;;;;47.22;21.63;;;;;;;15.13;60.25;101894.41;6339413;22;20015;-67
2022/04/14 02:22:14;;;;;;;30.95;22.65;;;;;;;15.12;60.36;101893.53;6313069;22;20531;-68
2022/04/14 02:24:41;;;;;;;32.55;22.83;;;;;;;15.13;60.22;101895.25;6340350;22;20022;-66
2022/04/14 02:27:08;;;;;;;33.42;24.35;;;;;;;15.14;60.11;101893.41;6340126;22;20026;-67
2022/04/14 02:29:35;;;;;;;30.95;23.42;;;;;;;15.14;60.27;101899.69;6311733;22;20098;-67
2022/04/14 02:32:01;;;;;;;39.92;23.45;;;;;;;15.16;60.31;101896.88;6339997;22;20049;-67
2022/04/14 02:34:31;;;;;;;90.30;27.77;;;;;;;15.17;60.01;101902.16;6340324;22;20014;-68
2022/04/14 02:36:58;;;;;;;39.35;22.08;;;;;;;15.16;60.04;101895.03;6339897;22;20075;-67
2022/04/14 02:39:24;;;;;;;52.58;23.77;;;;;;;15.15;60.34;101896.00;6339365;22;20011;-67
2022/04/14 02:41:55;;;;;;;43.00;24.60;;;;;;;15.15;60.09;101900.56;6339626;22;20449;-67
2022/04/14 02:44:24;;;;;;;40.83;23.25;;;;;;;15.12;60.15;101907.06;6340483;22;20083;-65
2022/04/14 02:46:51;;;;;;;83.90;26.92;;;;;;;15.11;60.18;101902.63;6340270;22;20437;-67
2022/04/14 02:49:17;;;;;;;45.20;24.55;;;;;;;15.10;60.31;101908.16;6339799;22;20015;-68
2022/04/14 02:51:44;;;;;;;30.20;23.85;;;;;;;15.08;60.21;101897.44;6312183;22;20364;-67
2022/04/14 02:54:11;;;;;;;40.60;23.63;;;;;;;15.10;60.06;101908.16;6339718;22;20467;-67
2022/04/14 02:56:37;;;;;;;47.53;24.60;;;;;;;15.10;60.30;101909.00;6339993;22;20502;-66
2022/04/14 02:59:04;;;;;;;36.10;24.45;;;;;;;15.10;60.41;101900.91;6339385;22;20475;-67
2022/04/14 03:01:31;;;;;;;32.50;24.42;;;;;;;15.12;60.19;101901.66;6339390;22;20461;-67
2022/04/14 03:03:58;;;;;;;69.93;23.52;;;;;;;15.13;60.42;101907.94;6339855;22;20015;-65
2022/04/14 03:06:24;;;;;;;46.28;23.58;;;;;;;15.12;60.37;101898.06;6312690;22;20103;-66
2022/04/14 03:08:51;;;;;;;46.08;23.00;;;;;;;15.10;60.38;101900.03;6339707;22;20333;-67
2022/04/14 03:11:18;;;;;;;89.90;26.13;;;;;;;15.08;60.25;101902.84;6339624;22;20072;-66
2022/04/14 03:13:44;;;;;;;43.65;24.30;;;;;;;15.06;60.57;101903.94;6339882;22;20041;-66
2022/04/14 03:16:11;;;;;;;40.55;23.55;;;;;;;15.04;60.49;101901.34;6312482;22;20536;-67
2022/04/14 03:18:38;;;;;;;39.47;24.63;;;;;;;15.04;60.49;101906.75;6339775;22;20019;-66
2022/04/14 03:21:04;;;;;;;35.90;23.30;;;;;;;15.03;60.51;101899.63;6311979;22;20445;-67
2022/04/14 03:23:31;;;;;;;26.95;21.65;;;;;;;15.03;60.38;101898.75;6311969;22;20019;-66
2022/04/14 03:25:57;;;;;;;65.60;25.23;;;;;;;15.03;60.57;101899.63;6311589;22;20011;-67
2022/04/14 03:28:24;;;;;;;31.90;23.05;;;;;;;15.02;60.48;101897.88;6347084;22;20015;-67
2022/04/14 03:30:56;;;;;;;36.03;24.00;;;;;;;15.02;60.62;101908.72;6340741;22;20037;-65
2022/04/14 03:33:23;;;;;;;27.70;22.50;;;;;;;15.02;60.58;101906.00;6339696;22;20011;-66
2022/04/14 03:35:50;;;;;;;47.60;23.75;;;;;;;15.03;60.58;101907.72;6311947;22;20021;-66
2022/04/14 03:38:16;;;;;;;33.40;22.60;;;;;;;15.03;60.43;101913.13;6311481;22;20011;-66
2022/04/14 03:41:02;;;;;;;32.25;22.88;;;;;;;15.04;60.72;101917.56;6311404;22;20017;-65
2022/04/14 03:43:31;;;;;;;66.28;24.27;;;;;;;15.04;60.48;101906.75;6312242;22;20318;-67
2022/04/14 03:45:58;;;;;;;84.82;26.33;;;;;;;15.03;60.77;101907.72;6312050;22;20337;-66
2022/04/14 03:48:29;;;;;;;29.58;21.73;;;;;;;15.01;60.39;101914.22;6338723;22;20504;-66
2022/04/14 03:50:55;;;;;;;33.17;23.50;;;;;;;14.98;60.44;101922.56;6339773;22;20459;-67
2022/04/14 03:53:22;;;;;;;55.10;22.85;;;;;;;14.98;60.32;101919.88;6339690;22;20387;-65
2022/04/14 03:55:49;;;;;;;63.38;23.58;;;;;;;14.96;60.46;101917.28;6339393;22;20015;-67
2022/04/14 03:58:16;;;;;;;35.15;24.17;;;;;;;14.94;60.46;101921.94;6339608;22;20468;-66
2022/04/14 04:00:46;;;;;;;29.15;23.50;;;;;;;14.92;60.87;101913.94;6339023;22;20094;-66
2022/04/14 04:03:14;;;;;;;54.30;26.90;;;;;;;14.92;60.91;101913.94;6339402;22;20019;-66
2022/04/14 04:05:41;;;;;;;42.13;24.90;;;;;;;14.94;60.91;101901.16;6339596;22;20098;-67
2022/04/14 04:08:08;;;;;;;80.00;28.45;;;;;;;14.96;60.83;101906.44;6311317;22;20021;-66
2022/04/14 04:10:35;;;;;;;36.90;25.00;;;;;;;14.96;60.97;101914.56;6339075;22;20014;-65
2022/04/14 04:13:01;;;;;;;48.55;27.13;;;;;;;14.96;60.95;101906.44;6339348;22;20464;-67
2022/04/14 04:15:29;;;;;;;36.97;26.13;;;;;;;14.98;60.89;101917.16;6339249;22;20014;-66
2022/04/14 04:17:55;;;;;;;55.65;26.70;;;;;;;15.00;60.89;101915.22;6310256;22;20019;-67
2022/04/14 04:20:22;;;;;;;46.67;26.65;;;;;;;14.99;60.95;101914.34;6311423;22;20023;-66
2022/04/14 04:22:48;;;;;;;36.70;26.52;;;;;;;14.99;61.09;101913.47;6311395;22;20421;-66
2022/04/14 04:25:15;;;;;;;33.05;25.77;;;;;;;14.99;61.16;101924.31;6339864;22;20017;-67
2022/04/14 04:27:42;;;;;;;33.70;27.13;;;;;;;15.00;61.24;101924.19;6338732;22;20511;-66
2022/04/14 04:30:09;;;;;;;43.08;26.98;;;;;;;15.02;61.40;101921.38;6338771;22;20089;-66
2022/04/14 04:32:36;;;;;;;35.90;27.10;;;;;;;15.02;61.19;101927.66;6338971;22;20341;-66
2022/04/14 04:35:04;;;;;;;33.47;26.30;;;;;;;15.03;61.24;101926.66;6339049;22;20357;-67
2022/04/14 04:37:32;;;;;;;33.20;26.20;;;;;;;15.05;60.96;101934.69;6338308;22;20089;-65
2022/04/14 04:39:58;;;;;;;33.95;25.92;;;;;;;15.05;61.03;101935.53;6338839;22;20072;-65
2022/04/14 04:42:25;;;;;;;32.78;26.73;;;;;;;15.07;61.11;101939.00;6339010;22;20014;-66
2022/04/14 04:44:52;;;;;;;35.83;26.65;;;;;;;15.07;61.31;101939.00;6338793;22;20019;-65
2022/04/14 04:47:22;;;;;;;38.33;26.70;;;;;;;15.08;61.28;101940.72;6338933;22;20025;-67
2022/04/14 04:49:49;;;;;;;46.85;27.70;;;;;;;15.07;60.97;101936.28;6338844;22;20021;-67
2022/04/14 04:52:15;;;;;;;39.47;26.80;;;;;;;15.09;61.09;101941.59;6339173;22;20019;-66
2022/04/14 04:54:43;;;;;;;88.10;29.05;;;;;;;15.08;61.01;101946.13;6339347;22;20092;-67
2022/04/14 04:57:09;;;;;;;36.25;27.25;;;;;;;15.07;60.86;101939.00;6338392;22;20526;-66
2022/04/14 04:59:36;;;;;;;60.97;28.65;;;;;;;15.06;61.18;101939.97;6338769;22;20068;-67
2022/04/14 05:02:05;;;;;;;52.47;27.38;;;;;;;15.04;61.27;101947.34;6338881;22;20502;-67
2022/04/14 05:04:32;;;;;;;38.88;27.08;;;;;;;15.05;61.13;101953.63;6339044;22;20022;-67
2022/04/14 05:06:58;;;;;;;33.60;26.48;;;;;;;15.05;61.37;101948.19;6311037;22;20025;-66
2022/04/14 05:09:25;;;;;;;39.72;28.63;;;;;;;15.05;61.21;101948.19;6338876;22;20015;-67
2022/04/14 05:11:52;;;;;;;38.78;27.10;;;;;;;15.06;61.16;101952.63;6338601;22;20022;-66
2022/04/14 05:14:18;;;;;;;38.00;28.17;;;;;;;15.06;61.54;101958.91;6285712;22;20349;-66
2022/04/14 05:16:45;;;;;;;32.22;25.95;;;;;;;15.06;61.26;101956.22;6338441;22;20029;-66
2022/04/14 05:19:13;;;;;;;49.95;28.52;;;;;;;15.07;61.35;101963.34;6285698;22;20485;-66
2022/04/14 05:21:39;;;;;;;33.92;27.60;;;;;;;15.08;61.25;101958.81;6310850;22;20433;-67
2022/04/14 05:24:06;;;;;;;38.60;26.25;;;;;;;15.08;61.28;101954.25;6339273;22;20011;-65
2022/04/14 05:26:33;;;;;;;31.65;25.42;;;;;;;15.07;61.29;101959.78;6338953;22;20015;-66
2022/04/14 05:29:00;;;;;;;30.10;25.60;;;;;;;15.06;61.45;101963.47;6338815;22;20438;-67
2022/04/14 05:31:28;;;;;;;30.45;25.30;;;;;;;15.06;61.20;101963.47;6338645;22;20015;-67
2022/04/14 05:33:55;;;;;;;30.92;25.83;;;;;;;15.05;61.23;101965.31;6311757;22;20383;-66
2022/04/14 05:36:21;;;;;;;29.17;24.98;;;;;;;15.05;61.05;101968.00;6338577;22;20018;-67
2022/04/14 05:38:48;;;;;;;29.00;25.17;;;;;;;15.05;61.37;101968.00;6338486;22;20011;-66
2022/04/14 05:41:19;;;;;;;32.15;27.02;;;;;;;15.04;61.27;101962.72;6338470;22;20014;-66
2022/04/14 05:43:45;;;;;;;32.38;27.35;;;;;;;15.05;61.20;101964.44;6338690;22;20042;-66
2022/04/14 05:46:12;;;;;;;30.88;25.33;;;;;;;15.04;61.16;101973.53;6311676;22;20391;-65
2022/04/14 05:48:39;;;;;;;35.97;25.33;;;;;;;15.03;61.09;101963.69;6340153;22;20011;-66
2022/04/14 05:51:05;;;;;;;36.25;25.25;;;;;;;15.01;60.95;101981.88;6340468;22;20368;-66
2022/04/14 05:53:37;;;;;;;30.55;26.45;;;;;;;15.01;60.89;101981.88;6339796;22;20090;-67
2022/04/14 05:56:04;;;;;;;30.42;26.08;;;;;;;15.00;60.89;101989.13;6312691;22;20041;-66
2022/04/14 05:58:31;;;;;;;33.25;26.85;;;;;;;15.01;61.14;101989.97;6288072;22;20042;-65
2022/04/14 06:00:58;;;;;;;31.45;27.23;;;;;;;14.99;60.95;101984.69;6340015;22;20011;-67
2022/04/14 06:03:26;;;;;;;35.15;26.88;;;;;;;14.99;60.89;101984.69;6340347;22;20015;-67
2022/04/14 06:05:52;;;;;;;31.88;26.05;;;;;;;15.01;61.02;101996.25;6340240;22;20007;-66
2022/04/14 06:08:19;;;;;;;70.60;29.50;;;;;;;15.04;61.08;102001.44;6312829;22;20018;-66
2022/04/14 06:10:45;;;;;;;49.22;29.50;;;;;;;15.04;61.10;102001.44;6312846;22;20015;-66
2022/04/14 06:13:12;;;;;;;48.88;29.60;;;;;;;15.06;61.17;101996.78;6340357;22;20081;-67
2022/04/14 06:15:39;;;;;;;70.55;33.72;;;;;;;15.08;61.29;102012.91;6340154;22;20015;-66
2022/04/14 06:18:06;;;;;;;83.13;33.17;;;;;;;15.06;61.25;102007.63;6313037;22;20015;-67
2022/04/14 06:20:32;;;;;;;93.90;33.67;;;;;;;15.04;61.42;102000.59;6340151;22;20041;-66
2022/04/14 06:22:59;;;;;;;60.22;32.20;;;;;;;15.05;61.44;101999.59;6312747;22;20042;-65
2022/04/14 06:25:26;;;;;;;53.90;32.45;;;;;;;15.05;61.41;102000.47;6340545;22;20007;-65
2022/04/14 06:27:55;;;;;;;61.83;32.13;;;;;;;15.07;61.60;102001.22;6338923;22;20440;-65
2022/04/14 06:30:22;;;;;;;107.55;35.65;;;;;;;15.10;61.98;101992.88;6339888;22;20099;-65
2022/04/14 06:33:05;;;;;;;48.53;32.60;;;;;;;15.12;61.98;102009.00;6340073;22;20387;-67
2022/04/14 06:35:32;;;;;;;45.72;31.45;;;;;;;15.17;62.25;102002.28;6340208;22;20373;-66
2022/04/14 06:37:59;;;;;;;52.83;32.08;;;;;;;15.24;62.20;102006.28;6339971;22;20015;-67
2022/04/14 06:40:25;;;;;;;46.17;34.35;;;;;;;15.29;62.12;102002.38;6312278;22;20397;-65
2022/04/14 06:42:59;;;;;;;41.60;31.80;;;;;;;15.33;62.40;102007.47;6339734;22;20041;-68
2022/04/14 06:45:27;;;;;;;46.58;30.55;;;;;;;15.39;62.32;102007.00;6339982;22;20085;-67
2022/04/14 06:47:54;;;;;;;63.17;33.47;;;;;;;15.47;62.43;102015.44;6339826;22;20015;-67
2022/04/14 06:50:21;;;;;;;47.58;32.65;;;;;;;15.53;62.32;102009.56;6339972;22;20380;-68
2022/04/14 06:52:47;;;;;;;53.30;34.90;;;;;;;15.63;62.50;101999.00;6339848;22;20098;-67
2022/04/14 06:55:16;;;;;;;50.03;36.25;;;;;;;15.72;62.76;102006.44;6339949;22;20011;-67
2022/04/14 06:57:43;;;;;;;53.75;37.67;;;;;;;15.87;62.93;102012.56;6339991;22;20021;-67
2022/04/14 07:00:10;;;;;;;50.60;37.80;;;;;;;16.01;62.81;102006.97;6311486;22;20018;-67
2022/04/14 07:03:06;;;;;;;47.72;35.65;;;;;;;16.19;63.35;102004.69;6339787;22;20019;-68
2022/04/14 07:05:32;;;;;;;37.90;29.52;;;;;;;16.41;63.30;102010.22;6281798;22;20015;-67
2022/04/14 07:07:59;;;;;;;37.17;28.63;;;;;;;16.66;62.95;102008.34;6312693;22;20019;-67
2022/04/14 07:10:27;;;;;;;34.45;27.38;;;;;;;16.91;63.01;102005.44;6312410;22;20068;-67
2022/04/14 07:12:55;;;;;;;36.47;27.17;;;;;;;17.18;63.02;102004.25;6339805;22;20060;-67
2022/04/14 07:15:22;;;;;;;32.60;26.98;;;;;;;17.44;62.86;102012.00;6339345;22;20090;-67
2022/04/14 07:17:49;;;;;;;32.20;25.40;;;;;;;17.69;62.46;102013.59;6339703;22;20035;-68
2022/04/14 07:20:15;;;;;;;30.52;24.83;;;;;;;17.94;62.30;102004.28;6339105;22;20015;-68
2022/04/14 07:22:46;;;;;;;27.33;23.55;;;;;;;18.17;62.01;102005.06;6339673;22;20101;-68
2022/04/14 07:25:21;;;;;;;27.55;22.63;;;;;;;18.38;61.31;102008.69;6339735;22;20085;-68
2022/04/14 07:27:48;;;;;;;25.60;22.33;;;;;;;18.57;60.99;102001.66;6312568;22;20007;-67
2022/04/14 07:30:15;;;;;;;24.38;21.17;;;;;;;18.79;60.77;102008.88;6339288;22;20086;-67
2022/04/14 07:32:43;;;;;;;25.23;21.70;;;;;;;19.00;60.48;102009.72;6339087;22;20102;-68
2022/04/14 07:35:10;;;;;;;22.77;20.25;;;;;;;19.22;60.11;102004.09;6339688;22;20015;-68
2022/04/14 07:37:36;;;;;;;23.60;19.48;;;;;;;19.44;60.14;102007.63;6339816;22;20015;-68
2022/04/14 07:40:07;;;;;;;23.05;18.48;;;;;;;19.65;59.45;102013.91;6338903;22;20056;-68
2022/04/14 07:42:38;;;;;;;22.52;18.58;;;;;;;19.75;58.74;102011.19;6339395;22;20014;-67
2022/04/14 07:45:06;;;;;;;22.63;18.77;;;;;;;19.81;58.50;102011.50;6340305;22;20015;-68
2022/04/14 07:47:41;;;;;;;23.35;19.88;;;;;;;19.90;58.49;102020.69;6339768;22;20463;-68
2022/04/14 07:50:13;;;;;;;22.60;19.73;;;;;;;20.02;58.08;102018.69;6339078;22;20487;-68
2022/04/14 07:52:48;;;;;;;22.33;18.20;;;;;;;20.17;57.85;102022.75;6312295;22;20403;-67
2022/04/14 07:55:20;;;;;;;22.40;18.20;;;;;;;20.28;57.50;102018.00;6312351;22;20011;-68
2022/04/14 07:57:47;;;;;;;20.08;17.48;;;;;;;20.43;57.24;102020.34;6312292;22;20015;-68
2022/04/14 08:00:15;;;;;;;20.35;17.95;;;;;;;20.56;57.43;102020.91;6311592;22;20357;-68
2022/04/14 08:02:56;;;;;;;19.98;17.08;;;;;;;20.73;57.13;102020.16;6339295;22;20019;-68
2022/04/14 08:05:34;;;;;;;23.52;17.80;;;;;;;20.92;56.53;102027.47;6339666;22;20048;-68
2022/04/14 08:08:03;;;;;;;18.25;16.40;;;;;;;21.07;56.21;102027.88;6286167;22;20025;-68
2022/04/14 08:10:30;;;;;;;22.27;19.13;;;;;;;21.17;56.04;102021.34;6339125;22;20527;-68
2022/04/14 08:12:57;;;;;;;19.63;17.40;;;;;;;21.25;55.65;102026.09;6311562;22;20042;-67
2022/04/14 08:15:25;;;;;;;18.15;15.93;;;;;;;21.33;55.63;102034.41;6311581;22;20102;-68
2022/04/14 08:17:52;;;;;;;20.08;16.33;;;;;;;21.47;55.56;102028.44;6339358;22;20018;-68
2022/04/14 08:20:19;;;;;;;16.58;14.77;;;;;;;21.59;54.99;102025.53;6311337;22;20015;-68
2022/04/14 08:22:47;;;;;;;18.48;16.33;;;;;;;21.65;54.52;102034.00;6311353;22;20510;-68
2022/04/14 08:25:25;;;;;;;20.42;16.00;;;;;;;21.79;54.18;102024.41;6285827;22;20368;-65
2022/04/14 08:27:53;;;;;;;15.25;12.55;;;;;;;21.93;54.24;102021.16;6310192;22;20457;-65
2022/04/14 08:30:22;;;;;;;16.05;14.35;;;;;;;22.05;53.74;102021.81;6311015;22;20079;-64
2022/04/14 08:32:50;;;;;;;16.30;13.05;;;;;;;22.16;53.80;102021.59;6338804;22;20083;-64
2022/04/14 08:35:18;;;;;;;15.85;12.93;;;;;;;22.24;53.24;102018.06;6339905;22;20034;-64
2022/04/14 08:37:46;;;;;;;14.07;12.57;;;;;;;22.30;52.92;102020.22;6312067;22;20015;-64
2022/04/14 08:40:16;;;;;;;13.00;11.60;;;;;;;22.40;52.42;102018.25;6338967;22;20368;-65
2022/04/14 08:43:04;;;;;;;14.52;13.02;;;;;;;22.50;52.16;102019.88;6338796;22;20367;-65
2022/04/14 08:45:37;;;;;;;13.88;12.02;;;;;;;22.61;51.85;102021.50;6339619;22;20019;-64
2022/04/14 08:48:04;;;;;;;15.75;12.93;;;;;;;22.65;51.73;102020.16;6339592;22;20015;-64
2022/04/14 08:50:32;;;;;;;12.40;10.25;;;;;;;22.76;51.33;102030.88;6340343;22;20014;-65
2022/04/14 08:52:59;;;;;;;12.60;11.30;;;;;;;22.85;50.94;102022.75;6343989;22;20019;-65
2022/04/14 08:55:27;;;;;;;11.02;9.88;;;;;;;22.94;50.93;102016.28;6342470;22;20018;-65
2022/04/14 08:57:54;;;;;;;11.40;8.98;;;;;;;23.01;50.87;102023.72;6338949;22;20500;-64
2022/04/14 09:00:21;;;;;;;12.15;9.15;;;;;;;23.09;50.17;102012.81;6311415;22;20011;-67
2022/04/14 09:02:50;;;;;;;10.93;8.57;;;;;;;23.18;49.95;102013.72;6338394;22;20070;-67
2022/04/14 09:05:17;;;;;;;10.15;8.27;;;;;;;23.29;49.77;102015.31;6339145;22;20383;-67
2022/04/14 09:07:48;;;;;;;10.95;8.90;;;;;;;23.40;49.38;102012.28;6339198;22;20035;-67
2022/04/14 09:10:15;;;;;;;10.75;7.93;;;;;;;23.52;49.07;102023.81;6338870;22;20049;-67
2022/04/14 09:12:42;;;;;;;9.75;7.55;;;;;;;23.65;48.91;102018.75;6339152;22;20019;-68
2022/04/14 09:15:11;;;;;;;11.02;7.60;;;;;;;23.73;48.47;102025.13;6338944;22;20014;-67
2022/04/14 09:17:38;;;;;;;9.02;6.68;;;;;;;23.82;47.98;102019.72;6338542;22;20517;-66
2022/04/14 09:20:27;;;;;;;7.35;6.30;;;;;;;23.86;47.29;102005.50;6310866;22;20388;-66
2022/04/14 09:23:23;;;;;;;8.95;6.47;;;;;;;23.89;46.93;101998.81;6311700;22;20018;-67
2022/04/14 09:25:52;;;;;;;8.80;5.30;;;;;;;23.89;47.02;102002.41;6340925;22;20029;-67
2022/04/14 09:28:20;;;;;;;8.85;5.90;;;;;;;23.97;47.33;102004.31;6341377;22;20503;-66
2022/04/14 09:31:00;;;;;;;8.30;6.10;;;;;;;24.12;46.92;101996.28;6340031;22;20015;-67
2022/04/14 09:33:27;;;;;;;10.73;6.28;;;;;;;24.26;46.79;101998.34;6341166;22;20038;-66
2022/04/14 09:36:09;;;;;;;8.38;5.82;;;;;;;24.40;46.55;101998.56;6340813;22;20011;-67
2022/04/14 09:39:05;;;;;;;8.88;6.00;;;;;;;24.53;45.70;102002.69;6313672;22;20357;-67
2022/04/14 09:41:40;;;;;;;5.85;3.83;;;;;;;24.57;45.39;101993.09;6340320;22;20076;-68
2022/04/14 09:44:10;;;;;;;6.82;4.30;;;;;;;24.60;45.44;101999.09;6340558;22;20015;-67
2022/04/14 09:46:41;;;;;;;8.10;4.63;;;;;;;24.68;45.39;101988.09;6313719;22;20146;-67
2022/04/14 09:49:12;;;;;;;6.13;3.92;;;;;;;24.82;45.30;101988.41;6338870;22;20015;-68
2022/04/14 09:51:41;;;;;;;5.57;3.90;;;;;;;24.96;44.78;101979.44;6339646;22;20015;-67
2022/04/14 09:54:17;;;;;;;7.22;4.72;;;;;;;25.06;44.18;101979.28;6340795;22;20018;-66
2022/04/14 09:56:46;;;;;;;5.07;3.58;;;;;;;25.12;43.81;101984.06;6313578;22;20018;-66
2022/04/14 09:59:15;;;;;;;5.80;4.00;;;;;;;25.16;43.63;101978.03;6340276;22;20026;-66
2022/04/14 10:01:44;;;;;;;4.50;3.30;;;;;;;25.27;43.49;101974.94;6340070;22;20018;-66
2022/04/14 10:04:31;;;;;;;6.18;4.00;;;;;;;25.40;42.83;101976.25;6338772;22;20110;-65
2022/04/14 10:07:06;;;;;;;4.95;4.45;;;;;;;25.49;42.44;101972.44;6340413;22;20348;-66
2022/04/14 10:09:34;;;;;;;;;;;;;;;25.52;43.03;101980.31;6340547;22;20015;-66
2022/04/14 10:12:03;;;;;;;4.97;3.55;;;;;;;25.67;42.91;101975.81;6341062;22;19915;-67
2022/04/14 10:14:30;;;;;;;3.47;2.17;;;;;;;25.76;42.37;101960.09;6312087;22;20021;-67
2022/04/14 10:17:02;;;;;;;3.90;2.63;;;;;;;25.85;41.76;101964.53;6313033;22;20014;-66
2022/04/14 10:19:32;;;;;;;2.97;2.17;;;;;;;25.93;41.42;101969.97;6289221;22;20043;-65
2022/04/14 10:21:59;;;;;;;4.00;2.60;;;;;;;25.94;40.62;101960.66;6340009;22;20015;-66
2022/04/14 10:24:27;;;;;;;5.40;3.05;;;;;;;25.94;40.46;101969.78;6340653;22;20333;-66
2022/04/14 10:26:54;;;;;;;2.97;2.35;;;;;;;26.05;40.60;101970.44;6340503;22;20057;-66
2022/04/14 10:29:21;;;;;;;3.85;2.92;;;;;;;26.15;40.40;101984.81;6340387;22;20014;-66
2022/04/14 10:31:53;;;;;;;4.88;3.42;;;;;;;26.26;40.21;101990.75;6339979;22;20402;-66
2022/04/14 10:34:22;;;;;;;5.25;4.60;;;;;;;26.41;40.23;101999.09;6339934;22;20010;-66
2022/04/14 10:36:49;;;;;;;14.23;4.07;;;;;;;26.56;40.02;101999.97;6340136;22;20437;-66
2022/04/14 10:39:18;;;;;;;4.97;3.90;;;;;;;26.67;39.86;102000.59;6339833;22;20332;-66
2022/04/14 10:41:49;;;;;;;6.13;3.60;;;;;;;26.72;39.02;102003.63;6339725;22;20022;-66
2022/04/14 10:44:19;;;;;;;4.07;2.20;;;;;;;26.67;38.04;102001.44;6340447;22;20041;-66
2022/04/14 10:46:48;;;;;;;5.40;3.53;;;;;;;26.58;37.68;101995.16;6340149;22;20335;-66
2022/04/14 10:49:17;;;;;;;4.30;2.40;;;;;;;26.50;37.35;101994.38;6312448;22;20019;-66
2022/04/14 10:51:44;;;;;;;3.58;2.65;;;;;;;26.42;37.18;101994.44;6339864;22;20343;-66
2022/04/14 10:54:12;;;;;;;3.90;2.75;;;;;;;26.38;37.06;101993.09;6340583;22;20021;-66
2022/04/14 10:56:41;;;;;;;3.20;1.90;;;;;;;26.34;36.77;101998.13;6339666;22;20035;-66
2022/04/14 10:59:12;;;;;;;4.20;2.60;;;;;;;26.35;36.85;101993.47;6312369;22;20468;-66
2022/04/14 11:01:48;;;;;;;4.30;2.70;;;;;;;26.40;36.88;102002.88;6340173;22;20329;-66
2022/04/14 11:04:21;;;;;;;3.40;2.72;;;;;;;26.54;37.12;101995.69;6339965;22;20071;-67
2022/04/14 11:06:51;;;;;;;3.80;2.47;;;;;;;26.71;37.22;101996.41;6341489;22;20397;-67
2022/04/14 11:09:42;;;;;;;3.42;1.90;;;;;;;26.87;37.28;101993.53;6312372;22;20015;-66
2022/04/14 11:12:27;;;;;;;2.05;1.15;;;;;;;26.92;36.43;101991.06;6312293;22;20371;-66
2022/04/14 11:14:58;;;;;;;2.17;0.75;;;;;;;26.87;35.99;101990.75;6312507;22;20530;-66
2022/04/14 11:17:37;;;;;;;2.10;0.95;;;;;;;26.83;35.63;101982.00;6312243;22;20053;-67
2022/04/14 11:20:23;;;;;;;1.60;1.17;;;;;;;26.79;35.57;101983.44;6312051;22;20023;-66